Time;durP1;ratioP1;P1;durP2;ratioP2;P2;SDS_P1;SDS_P2;PMS_P1;PMS_P2;Temp;Humidity;BMP_temperature;BMP_pressure;BME280_temperature;BME280_humidity;BME280_pressure;Samples;Min_cycle;Max_cycle;Signal;HPM_P1;HPM_P2
2021/11/05 00:00:34;;;;;;;56.63;28.08;;;;;;;;;;2128814;27;20499;-46
2021/11/05 00:01:35;;;;;;;53.60;28.67;;;;;;;;;;2130258;27;20049;-45
2021/11/05 00:02:36;;;;;;;62.13;30.10;;;;;;;;;;2131351;27;20046;-46
2021/11/05 00:03:40;;;;;;;59.35;30.08;;;;;;;;;;2127530;27;20366;-45
2021/11/05 00:04:41;;;;;;;57.28;28.77;;;;;;;;;;2131439;27;20160;-45
2021/11/05 00:05:42;;;;;;;57.00;28.30;;;;;;;;;;2131347;27;20099;-44
2021/11/05 00:06:43;;;;;;;46.85;24.88;;;;;;;;;;2127788;27;20046;-44
2021/11/05 00:07:45;;;;;;;52.38;28.38;;;;;;;;;;2131385;27;20046;-44
2021/11/05 00:08:46;;;;;;;61.25;28.13;;;;;;;;;;2130817;27;20070;-45
2021/11/05 00:09:47;;;;;;;59.57;30.07;;;;;;;;;;2128161;27;20039;-46
2021/11/05 00:10:49;;;;;;;57.75;29.83;;;;;;;;;;2131384;27;20070;-46
2021/11/05 00:11:49;;;;;;;60.33;29.50;;;;;;;;;;2130713;27;20531;-44
2021/11/05 00:12:51;;;;;;;49.83;26.60;;;;;;;;;;2128110;27;20185;-46
2021/11/05 00:13:52;;;;;;;53.33;27.73;;;;;;;;;;2131235;27;20569;-44
2021/11/05 00:14:53;;;;;;;58.08;29.05;;;;;;;;;;2130469;27;20396;-45
2021/11/05 00:15:54;;;;;;;53.77;27.03;;;;;;;;;;2128623;27;20043;-44
2021/11/05 00:16:55;;;;;;;52.53;26.50;;;;;;;;;;2131229;27;20043;-45
2021/11/05 00:17:56;;;;;;;49.37;25.93;;;;;;;;;;2129858;27;20399;-46
2021/11/05 00:18:56;;;;;;;56.70;28.33;;;;;;;;;;2128588;27;20046;-45
2021/11/05 00:19:58;;;;;;;55.33;29.63;;;;;;;;;;2131383;27;20484;-44
2021/11/05 00:20:59;;;;;;;53.35;27.90;;;;;;;;;;2129044;27;20059;-46
2021/11/05 00:22:00;;;;;;;48.05;26.98;;;;;;;;;;2130289;27;20053;-44
2021/11/05 00:23:02;;;;;;;58.38;29.55;;;;;;;;;;2132905;27;20077;-45
2021/11/05 00:24:03;;;;;;;;;;;;;;;;;;2131148;27;20121;-47
2021/11/05 00:25:06;;;;;;;49.53;25.55;;;;;;;;;;2132406;27;20435;-48
2021/11/05 00:26:07;;;;;;;48.83;26.95;;;;;;;;;;2132718;27;20479;-45
2021/11/05 00:27:08;;;;;;;52.95;28.70;;;;;;;;;;2130483;27;20130;-45
2021/11/05 00:28:09;;;;;;;57.30;27.98;;;;;;;;;;2131090;27;20046;-45
2021/11/05 00:29:10;;;;;;;54.63;28.80;;;;;;;;;;2132941;27;20057;-45
2021/11/05 00:30:12;;;;;;;50.70;26.55;;;;;;;;;;2129227;27;20445;-44
2021/11/05 00:31:13;;;;;;;59.33;29.55;;;;;;;;;;2132619;27;20125;-46
2021/11/05 00:32:14;;;;;;;50.90;26.58;;;;;;;;;;2132865;27;20125;-45
2021/11/05 00:33:15;;;;;;;48.80;25.87;;;;;;;;;;2129016;27;20395;-49
2021/11/05 00:34:17;;;;;;;52.38;27.70;;;;;;;;;;2132681;27;20051;-45
2021/11/05 00:35:19;;;;;;;48.70;25.08;;;;;;;;;;2132660;27;20129;-44
2021/11/05 00:36:21;;;;;;;51.85;26.20;;;;;;;;;;2129152;27;20126;-45
2021/11/05 00:37:22;;;;;;;48.53;25.30;;;;;;;;;;2132611;27;20488;-45
2021/11/05 00:38:23;;;;;;;61.23;30.27;;;;;;;;;;2132666;27;20047;-45
2021/11/05 00:39:24;;;;;;;54.85;28.83;;;;;;;;;;2130226;27;20137;-44
2021/11/05 00:40:28;;;;;;;58.22;29.33;;;;;;;;;;2132760;27;20117;-45
2021/11/05 00:41:29;;;;;;;66.05;31.85;;;;;;;;;;2132094;27;20252;-45
2021/11/05 00:42:30;;;;;;;65.73;31.27;;;;;;;;;;2130543;27;20403;-48
2021/11/05 00:43:31;;;;;;;74.20;34.17;;;;;;;;;;2132559;27;20578;-45
2021/11/05 00:44:32;;;;;;;74.93;32.20;;;;;;;;;;2132064;27;20047;-46
2021/11/05 00:45:33;;;;;;;63.83;30.63;;;;;;;;;;2129777;27;20126;-46
2021/11/05 00:46:34;;;;;;;64.03;29.87;;;;;;;;;;2132588;27;20050;-45
2021/11/05 00:47:35;;;;;;;60.10;28.92;;;;;;;;;;2131232;27;20130;-45
2021/11/05 00:48:36;;;;;;;54.38;29.58;;;;;;;;;;2127865;27;20047;-45
2021/11/05 00:49:37;;;;;;;51.97;26.92;;;;;;;;;;2124047;28;20047;-45
2021/11/05 00:50:38;;;;;;;63.03;30.77;;;;;;;;;;2124977;27;20065;-45
2021/11/05 00:51:39;;;;;;;66.40;33.08;;;;;;;;;;2131145;27;20133;-45
2021/11/05 00:52:40;;;;;;;65.43;30.83;;;;;;;;;;2132562;27;20055;-46
2021/11/05 00:53:42;;;;;;;65.78;30.88;;;;;;;;;;2130659;27;20125;-45
2021/11/05 00:54:43;;;;;;;48.78;26.67;;;;;;;;;;2131992;27;20130;-45
2021/11/05 00:55:44;;;;;;;66.80;32.03;;;;;;;;;;2132520;27;20045;-44
2021/11/05 00:56:45;;;;;;;57.10;28.27;;;;;;;;;;2130435;27;20043;-47
2021/11/05 00:57:46;;;;;;;73.60;32.43;;;;;;;;;;2131074;27;20039;-45
2021/11/05 00:58:47;;;;;;;72.55;31.38;;;;;;;;;;2132659;27;20122;-44
2021/11/05 00:59:48;;;;;;;64.60;31.17;;;;;;;;;;2130271;27;20047;-46
2021/11/05 01:00:49;;;;;;;59.00;28.92;;;;;;;;;;2131182;27;20049;-45
2021/11/05 01:01:50;;;;;;;69.38;32.25;;;;;;;;;;2132403;27;20555;-45
2021/11/05 01:02:51;;;;;;;57.80;29.05;;;;;;;;;;2127422;27;20468;-45
2021/11/05 01:03:52;;;;;;;74.72;34.78;;;;;;;;;;2131434;27;20046;-44
2021/11/05 01:04:53;;;;;;;67.13;31.17;;;;;;;;;;2132667;27;20118;-45
2021/11/05 01:05:54;;;;;;;72.65;32.17;;;;;;;;;;2129493;27;20142;-46
2021/11/05 01:06:55;;;;;;;79.95;35.45;;;;;;;;;;2132038;27;20047;-44
2021/11/05 01:07:56;;;;;;;65.32;30.23;;;;;;;;;;2132683;27;20571;-44
2021/11/05 01:08:58;;;;;;;70.60;33.22;;;;;;;;;;2128962;27;20490;-45
2021/11/05 01:09:59;;;;;;;66.53;31.15;;;;;;;;;;2132640;27;20074;-47
2021/11/05 01:11:00;;;;;;;61.00;30.10;;;;;;;;;;2132510;27;20152;-44
2021/11/05 01:12:01;;;;;;;54.53;27.87;;;;;;;;;;2128751;27;20091;-46
2021/11/05 01:13:03;;;;;;;70.47;32.85;;;;;;;;;;2132620;27;20043;-46
2021/11/05 01:14:04;;;;;;;73.90;32.75;;;;;;;;;;2132106;27;20046;-44
2021/11/05 01:15:05;;;;;;;73.55;32.72;;;;;;;;;;2130565;27;20137;-45
2021/11/05 01:16:06;;;;;;;67.40;30.95;;;;;;;;;;2132606;27;20196;-44
2021/11/05 01:17:08;;;;;;;65.45;30.90;;;;;;;;;;2132012;27;20046;-46
2021/11/05 01:18:09;;;;;;;54.83;27.48;;;;;;;;;;2129364;27;20126;-45
2021/11/05 01:19:10;;;;;;;51.72;27.75;;;;;;;;;;2132525;27;20106;-45
2021/11/05 01:20:13;;;;;;;61.03;29.47;;;;;;;;;;2131336;27;20547;-45
2021/11/05 01:21:14;;;;;;;58.65;29.25;;;;;;;;;;2130069;27;20043;-44
2021/11/05 01:22:15;;;;;;;64.05;29.73;;;;;;;;;;2132332;27;20043;-45
2021/11/05 01:23:17;;;;;;;71.05;31.40;;;;;;;;;;2130183;27;20579;-46
2021/11/05 01:24:18;;;;;;;;;;;;;;;;;;2131257;27;20559;-45
2021/11/05 01:25:19;;;;;;;67.13;30.77;;;;;;;;;;2132550;27;19918;-44
2021/11/05 01:26:21;;;;;;;54.38;28.52;;;;;;;;;;2130247;27;20073;-47
2021/11/05 01:27:22;;;;;;;66.97;30.90;;;;;;;;;;2131011;27;20066;-46
2021/11/05 01:28:23;;;;;;;72.20;32.00;;;;;;;;;;2132536;27;20050;-45
2021/11/05 01:29:24;;;;;;;86.57;36.37;;;;;;;;;;2129625;27;20051;-48
2021/11/05 01:30:25;;;;;;;62.60;29.92;;;;;;;;;;2130882;27;20559;-45
2021/11/05 01:31:26;;;;;;;70.25;32.13;;;;;;;;;;2132401;27;20043;-45
2021/11/05 01:32:27;;;;;;;81.40;34.10;;;;;;;;;;2128887;27;20439;-45
2021/11/05 01:33:29;;;;;;;77.28;33.15;;;;;;;;;;2132086;27;20039;-45
2021/11/05 01:34:30;;;;;;;62.72;29.67;;;;;;;;;;2132362;27;20118;-45
2021/11/05 01:35:31;;;;;;;63.22;30.13;;;;;;;;;;2128793;27;20070;-45
2021/11/05 01:36:32;;;;;;;60.92;31.08;;;;;;;;;;2132296;27;20126;-45
2021/11/05 01:37:33;;;;;;;72.45;31.80;;;;;;;;;;2132343;27;20441;-47
2021/11/05 01:38:34;;;;;;;63.47;29.77;;;;;;;;;;2129909;27;20039;-48
2021/11/05 01:39:35;;;;;;;69.18;31.67;;;;;;;;;;2132225;27;20415;-45
2021/11/05 01:40:37;;;;;;;65.00;29.48;;;;;;;;;;2132220;27;20049;-46
2021/11/05 01:41:39;;;;;;;69.53;28.83;;;;;;;;;;2129696;27;20430;-45
2021/11/05 01:42:40;;;;;;;57.90;26.27;;;;;;;;;;2132205;27;20126;-46
2021/11/05 01:43:41;;;;;;;53.22;24.83;;;;;;;;;;2132349;27;20065;-47
2021/11/05 01:44:42;;;;;;;71.78;30.58;;;;;;;;;;2127700;27;20453;-46
2021/11/05 01:45:44;;;;;;;55.22;26.23;;;;;;;;;;2132383;27;20050;-45
2021/11/05 01:46:45;;;;;;;51.88;24.63;;;;;;;;;;2131687;27;20051;-46
2021/11/05 01:47:46;;;;;;;66.53;27.33;;;;;;;;;;2130400;27;20365;-46
2021/11/05 01:48:47;;;;;;;69.82;30.08;;;;;;;;;;2132252;27;20584;-45
2021/11/05 01:49:48;;;;;;;73.97;29.23;;;;;;;;;;2131765;27;20083;-45
2021/11/05 01:50:49;;;;;;;75.97;30.25;;;;;;;;;;2130810;27;20054;-48
2021/11/05 01:51:51;;;;;;;67.82;27.48;;;;;;;;;;2132177;27;20039;-48
2021/11/05 01:52:52;;;;;;;62.08;26.95;;;;;;;;;;2130675;27;20122;-47
2021/11/05 01:53:54;;;;;;;65.25;29.05;;;;;;;;;;2130217;27;20038;-46
2021/11/05 01:54:54;;;;;;;67.07;27.73;;;;;;;;;;2132271;27;20066;-46
2021/11/05 01:55:56;;;;;;;68.27;29.33;;;;;;;;;;2130164;27;20129;-46
2021/11/05 01:56:57;;;;;;;;;;;;;;;;;;2131033;27;20047;-47
2021/11/05 01:57:58;;;;;;;67.40;27.25;;;;;;;;;;2132242;27;20014;-47
2021/11/05 01:58:59;;;;;;;57.30;26.27;;;;;;;;;;2130045;27;20130;-47
2021/11/05 02:00:00;;;;;;;62.53;26.40;;;;;;;;;;2130897;27;20414;-47
2021/11/05 02:01:02;;;;;;;65.50;29.58;;;;;;;;;;2132089;27;20049;-48
2021/11/05 02:02:06;;;;;;;55.67;26.80;;;;;;;;;;2129986;27;20126;-49
2021/11/05 02:03:06;;;;;;;62.00;27.33;;;;;;;;;;2129271;27;20078;-46
2021/11/05 02:04:08;;;;;;;53.53;24.73;;;;;;;;;;2132204;27;20046;-49
2021/11/05 02:05:09;;;;;;;74.32;29.60;;;;;;;;;;2128702;27;20547;-48
2021/11/05 02:06:10;;;;;;;67.40;27.63;;;;;;;;;;2131988;27;20474;-46
2021/11/05 02:07:11;;;;;;;67.68;28.95;;;;;;;;;;2132043;27;20099;-49
2021/11/05 02:08:13;;;;;;;54.33;25.08;;;;;;;;;;2129000;27;20566;-46
2021/11/05 02:09:15;;;;;;;53.83;24.98;;;;;;;;;;2131747;27;20043;-46
2021/11/05 02:10:17;;;;;;;55.30;25.45;;;;;;;;;;2132099;27;20121;-48
2021/11/05 02:11:18;;;;;;;62.38;27.77;;;;;;;;;;2127035;27;20046;-46
2021/11/05 02:12:20;;;;;;;64.70;27.42;;;;;;;;;;2132026;27;20463;-45
2021/11/05 02:13:21;;;;;;;55.08;25.02;;;;;;;;;;2132238;27;20407;-46
2021/11/05 02:14:23;;;;;;;55.22;25.83;;;;;;;;;;2127658;27;20038;-48
2021/11/05 02:15:25;;;;;;;59.05;27.92;;;;;;;;;;2132185;27;20167;-46
2021/11/05 02:16:27;;;;;;;56.28;26.80;;;;;;;;;;2131539;27;20445;-46
2021/11/05 02:17:28;;;;;;;55.50;26.00;;;;;;;;;;2128787;27;20038;-46
2021/11/05 02:18:29;;;;;;;59.13;28.08;;;;;;;;;;2132019;27;20179;-46
2021/11/05 02:19:31;;;;;;;58.67;26.45;;;;;;;;;;2131167;27;20134;-46
2021/11/05 02:20:32;;;;;;;;;;;;;;;;;;2129989;27;20046;-46
2021/11/05 02:21:36;;;;;;;44.45;22.35;;;;;;;;;;2131913;27;19919;-49
2021/11/05 02:22:38;;;;;;;52.65;25.13;;;;;;;;;;2129771;27;20476;-46
2021/11/05 02:23:39;;;;;;;49.08;24.77;;;;;;;;;;2130535;27;20129;-46
2021/11/05 02:24:40;;;;;;;67.85;28.52;;;;;;;;;;2131978;27;20636;-47
2021/11/05 02:25:41;;;;;;;69.15;27.08;;;;;;;;;;2129355;27;20066;-45
2021/11/05 02:26:43;;;;;;;64.78;28.42;;;;;;;;;;2130646;27;20153;-48
2021/11/05 02:27:44;;;;;;;69.35;28.77;;;;;;;;;;2131991;27;20122;-47
2021/11/05 02:28:45;;;;;;;73.97;27.27;;;;;;;;;;2129026;27;20061;-49
2021/11/05 02:29:46;;;;;;;71.13;28.48;;;;;;;;;;2131559;27;20065;-47
2021/11/05 02:30:47;;;;;;;69.47;29.85;;;;;;;;;;2132124;27;20046;-50
2021/11/05 02:31:49;;;;;;;69.80;27.93;;;;;;;;;;2129613;27;20480;-47
2021/11/05 02:32:49;;;;;;;83.10;31.33;;;;;;;;;;2130762;27;20049;-47
2021/11/05 02:33:51;;;;;;;69.57;28.40;;;;;;;;;;2131899;27;20488;-48
2021/11/05 02:34:51;;;;;;;67.93;29.50;;;;;;;;;;2127034;27;20122;-48
2021/11/05 02:35:53;;;;;;;69.53;28.67;;;;;;;;;;2131919;27;20069;-48
2021/11/05 02:36:54;;;;;;;66.18;28.77;;;;;;;;;;2131850;27;20152;-47
2021/11/05 02:37:56;;;;;;;73.78;29.30;;;;;;;;;;2128487;27;20133;-47
2021/11/05 02:38:57;;;;;;;76.95;31.25;;;;;;;;;;2123264;28;20126;-48
2021/11/05 02:39:58;;;;;;;71.35;30.15;;;;;;;;;;2123486;28;20076;-50
2021/11/05 02:40:59;;;;;;;73.13;27.95;;;;;;;;;;2127551;27;20121;-48
2021/11/05 02:42:01;;;;;;;62.53;28.77;;;;;;;;;;2131846;27;20108;-48
2021/11/05 02:43:02;;;;;;;63.80;28.63;;;;;;;;;;2131774;27;20144;-48
2021/11/05 02:44:03;;;;;;;64.03;27.27;;;;;;;;;;2127012;27;20047;-48
2021/11/05 02:45:05;;;;;;;70.72;30.23;;;;;;;;;;2122812;27;20212;-48
2021/11/05 02:46:06;;;;;;;64.57;28.77;;;;;;;;;;2123624;27;20139;-48
2021/11/05 02:47:14;;;;;;;62.92;30.08;;;;;;;;;;2128569;27;20038;-47
2021/11/05 02:48:16;;;;;;;61.67;26.58;;;;;;;;;;2131766;27;20123;-48
2021/11/05 02:49:17;;;;;;;60.53;29.02;;;;;;;;;;2129654;27;20133;-47
2021/11/05 02:50:18;;;;;;;66.38;28.92;;;;;;;;;;2130587;27;20511;-52
2021/11/05 02:51:19;;;;;;;61.78;27.85;;;;;;;;;;2131959;27;20172;-48
2021/11/05 02:52:22;;;;;;;61.17;28.63;;;;;;;;;;2129787;27;20475;-48
2021/11/05 02:53:22;;;;;;;66.95;29.27;;;;;;;;;;2130412;27;20125;-48
2021/11/05 02:54:23;;;;;;;64.93;28.57;;;;;;;;;;2131851;27;20512;-48
2021/11/05 02:55:24;;;;;;;63.47;28.23;;;;;;;;;;2129567;27;20502;-50
2021/11/05 02:56:26;;;;;;;66.23;27.83;;;;;;;;;;2125743;27;20043;-46
2021/11/05 02:57:26;;;;;;;71.45;29.88;;;;;;;;;;2123223;28;20042;-45
2021/11/05 02:58:28;;;;;;;64.27;27.00;;;;;;;;;;2125983;27;20035;-45
2021/11/05 02:59:29;;;;;;;72.38;30.50;;;;;;;;;;2130348;27;20035;-48
2021/11/05 03:00:30;;;;;;;62.03;27.20;;;;;;;;;;2131906;27;20057;-46
2021/11/05 03:01:32;;;;;;;62.92;27.58;;;;;;;;;;2129272;27;20043;-46
2021/11/05 03:02:33;;;;;;;63.00;27.17;;;;;;;;;;2131532;27;20047;-44
2021/11/05 03:03:34;;;;;;;69.15;29.20;;;;;;;;;;2130241;27;20126;-46
2021/11/05 03:04:35;;;;;;;70.50;30.60;;;;;;;;;;2128220;27;20408;-46
2021/11/05 03:05:36;;;;;;;63.53;28.70;;;;;;;;;;2130906;27;20191;-46
2021/11/05 03:06:38;;;;;;;65.25;29.42;;;;;;;;;;2131839;27;20046;-46
2021/11/05 03:07:40;;;;;;;66.05;29.80;;;;;;;;;;2128046;27;20102;-45
2021/11/05 03:08:41;;;;;;;68.78;28.98;;;;;;;;;;2131791;27;20047;-45
2021/11/05 03:09:44;;;;;;;63.80;27.00;;;;;;;;;;2131774;27;20043;-47
2021/11/05 03:10:45;;;;;;;65.50;29.58;;;;;;;;;;2127183;27;20550;-45
2021/11/05 03:11:46;;;;;;;56.97;26.80;;;;;;;;;;2131694;27;20130;-45
2021/11/05 03:12:47;;;;;;;59.87;27.70;;;;;;;;;;2131169;27;20116;-46
2021/11/05 03:13:48;;;;;;;62.17;27.13;;;;;;;;;;2128603;27;20126;-48
2021/11/05 03:14:49;;;;;;;60.40;27.53;;;;;;;;;;2131723;27;20411;-45
2021/11/05 03:15:50;;;;;;;63.75;29.10;;;;;;;;;;2131308;27;20133;-48
2021/11/05 03:16:52;;;;;;;74.43;29.60;;;;;;;;;;2128682;27;20167;-45
2021/11/05 03:17:54;;;;;;;;;;;;;;;;;;2132026;27;20057;-48
2021/11/05 03:18:54;;;;;;;61.05;27.05;;;;;;;;;;2130073;27;20079;-45
2021/11/05 03:19:55;;;;;;;65.93;27.30;;;;;;;;;;2129662;27;20064;-46
2021/11/05 03:20:57;;;;;;;61.45;27.08;;;;;;;;;;2131563;27;20051;-46
2021/11/05 03:21:58;;;;;;;63.13;26.27;;;;;;;;;;2128472;27;20049;-47
2021/11/05 03:22:59;;;;;;;52.17;26.40;;;;;;;;;;2129999;27;20499;-48
2021/11/05 03:24:01;;;;;;;55.67;26.88;;;;;;;;;;2131557;27;20046;-47
2021/11/05 03:25:02;;;;;;;64.22;29.00;;;;;;;;;;2129512;27;20126;-46
2021/11/05 03:26:03;;;;;;;71.70;29.77;;;;;;;;;;2130180;27;20137;-46
2021/11/05 03:27:04;;;;;;;70.30;29.88;;;;;;;;;;2131641;27;20054;-46
2021/11/05 03:28:05;;;;;;;79.20;30.65;;;;;;;;;;2128326;27;20168;-47
2021/11/05 03:29:07;;;;;;;74.05;28.73;;;;;;;;;;2130285;27;20124;-47
2021/11/05 03:30:09;;;;;;;63.55;27.95;;;;;;;;;;2131646;27;20142;-48
2021/11/05 03:31:10;;;;;;;61.22;27.02;;;;;;;;;;2128346;27;20130;-46
2021/11/05 03:32:12;;;;;;;;;;;;;;;;;;2131615;27;20078;-45
2021/11/05 03:33:13;;;;;;;59.17;26.10;;;;;;;;;;2131462;27;19962;-46
2021/11/05 03:34:14;;;;;;;61.10;25.73;;;;;;;;;;2128289;27;20043;-45
2021/11/05 03:35:15;;;;;;;55.72;25.55;;;;;;;;;;2131532;27;20130;-46
2021/11/05 03:36:16;;;;;;;67.10;28.90;;;;;;;;;;2131245;27;20042;-46
2021/11/05 03:37:17;;;;;;;71.60;28.52;;;;;;;;;;2127074;27;20137;-48
2021/11/05 03:38:19;;;;;;;67.80;28.90;;;;;;;;;;2123064;28;20419;-45
2021/11/05 03:39:19;;;;;;;64.65;28.13;;;;;;;;;;2123812;27;20181;-45
2021/11/05 03:40:21;;;;;;;77.13;31.00;;;;;;;;;;2128969;27;20047;-45
2021/11/05 03:41:22;;;;;;;69.35;28.42;;;;;;;;;;2131471;27;20046;-45
2021/11/05 03:42:23;;;;;;;90.93;31.58;;;;;;;;;;2128430;27;20047;-46
2021/11/05 03:43:24;;;;;;;70.63;27.40;;;;;;;;;;2130848;27;20086;-45
2021/11/05 03:44:25;;;;;;;79.80;34.47;;;;;;;;;;2131415;27;20047;-45
2021/11/05 03:45:26;;;;;;;70.85;30.63;;;;;;;;;;2129344;27;20148;-45
2021/11/05 03:46:27;;;;;;;74.43;29.57;;;;;;;;;;2129848;27;20038;-47
2021/11/05 03:47:28;;;;;;;76.50;30.63;;;;;;;;;;2131486;27;20129;-45
2021/11/05 03:48:34;;;;;;;58.60;26.02;;;;;;;;;;2129300;27;20550;-45
2021/11/05 03:49:35;;;;;;;71.15;28.70;;;;;;;;;;2130104;27;20083;-46
2021/11/05 03:50:36;;;;;;;65.97;27.93;;;;;;;;;;2131412;27;20091;-47
2021/11/05 03:51:37;;;;;;;55.63;26.35;;;;;;;;;;2129223;27;20122;-47
2021/11/05 03:52:38;;;;;;;66.70;28.13;;;;;;;;;;2131020;27;20082;-44
2021/11/05 03:53:40;;;;;;;68.47;28.95;;;;;;;;;;2131531;27;20121;-46
2021/11/05 03:54:41;;;;;;;;;;;;;;;;;;2129377;27;20563;-46
2021/11/05 03:55:42;;;;;;;68.05;29.08;;;;;;;;;;2130330;27;19918;-47
2021/11/05 03:56:43;;;;;;;57.42;26.95;;;;;;;;;;2130424;27;20454;-47
2021/11/05 03:57:44;;;;;;;72.32;28.95;;;;;;;;;;2127778;27;20374;-46
2021/11/05 03:58:45;;;;;;;64.88;28.50;;;;;;;;;;2131372;27;20073;-46
2021/11/05 03:59:46;;;;;;;62.53;27.13;;;;;;;;;;2131389;27;20049;-46
2021/11/05 04:00:47;;;;;;;63.10;28.15;;;;;;;;;;2127964;27;20467;-47
2021/11/05 04:01:49;;;;;;;66.93;29.23;;;;;;;;;;2131205;27;20422;-47
2021/11/05 04:02:49;;;;;;;72.25;30.30;;;;;;;;;;2130007;27;20038;-48
2021/11/05 04:03:51;;;;;;;75.77;32.63;;;;;;;;;;2128943;27;20458;-46
2021/11/05 04:04:55;;;;;;;72.00;30.85;;;;;;;;;;2131512;27;20062;-48
2021/11/05 04:05:56;;;;;;;78.78;32.95;;;;;;;;;;2130882;27;20130;-46
2021/11/05 04:06:57;;;;;;;64.13;28.60;;;;;;;;;;2128059;27;20077;-45
2021/11/05 04:07:58;;;;;;;66.90;28.30;;;;;;;;;;2131632;27;20125;-46
2021/11/05 04:08:59;;;;;;;71.47;30.75;;;;;;;;;;2130611;27;20542;-45
2021/11/05 04:10:01;;;;;;;69.65;29.48;;;;;;;;;;2128567;27;20459;-49
2021/11/05 04:11:02;;;;;;;67.95;30.70;;;;;;;;;;2131341;27;20050;-46
2021/11/05 04:12:03;;;;;;;75.88;31.70;;;;;;;;;;2129703;27;20069;-47
2021/11/05 04:13:05;;;;;;;80.55;33.63;;;;;;;;;;2128292;27;20047;-47
2021/11/05 04:14:06;;;;;;;72.53;30.92;;;;;;;;;;2131395;27;20130;-46
2021/11/05 04:15:07;;;;;;;73.20;32.15;;;;;;;;;;2129131;27;20567;-47
2021/11/05 04:16:08;;;;;;;70.07;30.63;;;;;;;;;;2129760;27;20081;-45
2021/11/05 04:17:09;;;;;;;66.88;28.80;;;;;;;;;;2131361;27;20089;-45
2021/11/05 04:18:10;;;;;;;70.10;27.95;;;;;;;;;;2128678;27;20475;-45
2021/11/05 04:19:11;;;;;;;83.22;32.30;;;;;;;;;;2131328;27;20141;-47
2021/11/05 04:20:12;;;;;;;66.25;27.88;;;;;;;;;;2131350;27;20539;-46
2021/11/05 04:21:13;;;;;;;54.92;25.00;;;;;;;;;;2127985;27;20126;-46
2021/11/05 04:22:16;;;;;;;69.28;28.13;;;;;;;;;;2122538;28;20051;-45
2021/11/05 04:23:17;;;;;;;73.97;31.02;;;;;;;;;;2122848;28;20126;-46
2021/11/05 04:24:19;;;;;;;68.10;29.27;;;;;;;;;;2127061;27;20110;-45
2021/11/05 04:25:20;;;;;;;89.63;33.30;;;;;;;;;;2131411;27;20049;-45
2021/11/05 04:26:21;;;;;;;72.93;30.23;;;;;;;;;;2130682;27;20061;-45
2021/11/05 04:27:22;;;;;;;60.58;27.73;;;;;;;;;;2128079;27;20822;-46
2021/11/05 04:28:23;;;;;;;84.50;31.77;;;;;;;;;;2131284;27;20046;-47
2021/11/05 04:29:24;;;;;;;94.57;34.28;;;;;;;;;;2130687;27;20091;-46
2021/11/05 04:30:25;;;;;;;84.87;32.20;;;;;;;;;;2129323;27;20046;-45
2021/11/05 04:31:26;;;;;;;84.20;32.60;;;;;;;;;;2131207;27;20222;-45
2021/11/05 04:32:28;;;;;;;86.90;32.17;;;;;;;;;;2130469;27;20482;-46
2021/11/05 04:33:31;;;;;;;81.55;31.42;;;;;;;;;;2126495;27;20332;-45
2021/11/05 04:34:32;;;;;;;79.30;32.75;;;;;;;;;;2122614;28;20048;-46
2021/11/05 04:35:33;;;;;;;87.80;32.28;;;;;;;;;;2123014;27;20051;-46
2021/11/05 04:36:35;;;;;;;84.78;31.70;;;;;;;;;;2129731;27;20066;-46
2021/11/05 04:37:36;;;;;;;;;;;;;;;;;;2131682;27;20131;-46
2021/11/05 04:38:37;;;;;;;80.32;31.50;;;;;;;;;;2129051;27;19926;-46
2021/11/05 04:39:43;;;;;;;79.88;31.25;;;;;;;;;;2129810;27;20396;-45
2021/11/05 04:40:44;;;;;;;68.80;30.38;;;;;;;;;;2131123;27;20047;-45
2021/11/05 04:41:46;;;;;;;88.72;32.80;;;;;;;;;;2128871;27;20107;-45
2021/11/05 04:42:47;;;;;;;79.97;31.30;;;;;;;;;;2131212;27;20129;-46
2021/11/05 04:43:48;;;;;;;69.22;30.35;;;;;;;;;;2131180;27;20133;-50
2021/11/05 04:44:49;;;;;;;72.37;29.20;;;;;;;;;;2127583;27;20042;-45
2021/11/05 04:45:50;;;;;;;79.88;31.73;;;;;;;;;;2131253;27;20286;-46
2021/11/05 04:46:51;;;;;;;89.90;33.30;;;;;;;;;;2130651;27;20142;-45
2021/11/05 04:47:52;;;;;;;78.43;31.20;;;;;;;;;;2127887;27;20453;-47
2021/11/05 04:48:53;;;;;;;89.60;33.23;;;;;;;;;;2131142;27;20043;-46
2021/11/05 04:49:54;;;;;;;97.05;35.75;;;;;;;;;;2130588;27;20066;-46
2021/11/05 04:50:55;;;;;;;96.97;35.83;;;;;;;;;;2128140;27;20066;-46
2021/11/05 04:51:56;;;;;;;86.85;31.42;;;;;;;;;;2131011;27;20122;-46
2021/11/05 04:52:58;;;;;;;86.30;33.67;;;;;;;;;;2130565;27;20487;-46
2021/11/05 04:53:59;;;;;;;90.47;34.47;;;;;;;;;;2128319;27;20075;-46
2021/11/05 04:55:01;;;;;;;87.57;35.13;;;;;;;;;;2131036;27;20046;-46
2021/11/05 04:56:02;;;;;;;80.72;31.50;;;;;;;;;;2129420;27;20042;-46
2021/11/05 04:57:03;;;;;;;82.45;32.58;;;;;;;;;;2128422;27;20085;-45
2021/11/05 04:58:04;;;;;;;80.60;31.20;;;;;;;;;;2131077;27;20168;-45
2021/11/05 04:59:05;;;;;;;94.40;33.30;;;;;;;;;;2128961;27;20509;-45
2021/11/05 05:00:07;;;;;;;86.30;34.17;;;;;;;;;;2130624;27;20077;-46
2021/11/05 05:01:08;;;;;;;82.70;30.60;;;;;;;;;;2130988;27;20497;-46
2021/11/05 05:02:10;;;;;;;80.43;31.73;;;;;;;;;;2129078;27;20112;-48
2021/11/05 05:03:11;;;;;;;74.32;30.40;;;;;;;;;;2126957;27;20130;-47
2021/11/05 05:04:13;;;;;;;75.55;30.23;;;;;;;;;;2131088;27;20129;-45
2021/11/05 05:05:14;;;;;;;70.78;29.80;;;;;;;;;;2127470;27;20130;-48
2021/11/05 05:06:15;;;;;;;82.40;32.88;;;;;;;;;;2130842;27;20053;-46
2021/11/05 05:07:16;;;;;;;80.47;34.13;;;;;;;;;;2131017;27;20050;-46
2021/11/05 05:08:17;;;;;;;97.65;34.63;;;;;;;;;;2128722;27;20122;-48
2021/11/05 05:09:18;;;;;;;103.97;35.57;;;;;;;;;;2132232;27;20591;-46
2021/11/05 05:10:20;;;;;;;83.07;34.10;;;;;;;;;;2132608;27;20279;-46
2021/11/05 05:11:21;;;;;;;98.88;34.78;;;;;;;;;;2128899;27;20471;-46
2021/11/05 05:12:22;;;;;;;80.47;31.55;;;;;;;;;;2132309;27;20053;-45
2021/11/05 05:13:23;;;;;;;88.80;34.13;;;;;;;;;;2132617;27;20050;-47
2021/11/05 05:14:24;;;;;;;79.38;31.00;;;;;;;;;;2127102;27;20067;-45
2021/11/05 05:15:25;;;;;;;96.77;34.43;;;;;;;;;;2132465;27;20491;-45
2021/11/05 05:16:26;;;;;;;97.07;34.97;;;;;;;;;;2132487;27;20121;-47
2021/11/05 05:17:27;;;;;;;82.70;31.07;;;;;;;;;;2127450;27;20506;-49
2021/11/05 05:18:28;;;;;;;93.53;33.17;;;;;;;;;;2132424;27;20043;-46
2021/11/05 05:19:29;;;;;;;81.90;33.70;;;;;;;;;;2132647;27;20047;-45
2021/11/05 05:20:30;;;;;;;87.88;34.33;;;;;;;;;;2127989;27;20133;-49
2021/11/05 05:21:31;;;;;;;96.97;35.20;;;;;;;;;;2132493;27;20053;-46
2021/11/05 05:22:32;;;;;;;81.35;32.70;;;;;;;;;;2132005;27;20133;-46
2021/11/05 05:23:33;;;;;;;86.03;32.73;;;;;;;;;;2130249;27;20091;-45
2021/11/05 05:24:34;;;;;;;91.80;34.13;;;;;;;;;;2132513;27;20055;-47
2021/11/05 05:25:36;;;;;;;89.32;34.80;;;;;;;;;;2131654;27;20102;-46
2021/11/05 05:26:37;;;;;;;93.88;35.25;;;;;;;;;;2129644;27;20504;-46
2021/11/05 05:27:45;;;;;;;88.22;33.63;;;;;;;;;;2132324;27;20046;-46
2021/11/05 05:28:46;;;;;;;98.82;36.28;;;;;;;;;;2130364;27;20047;-47
2021/11/05 05:29:47;;;;;;;96.75;36.22;;;;;;;;;;2130886;27;20093;-47
2021/11/05 05:30:49;;;;;;;87.28;34.63;;;;;;;;;;2132501;27;20121;-47
2021/11/05 05:31:50;;;;;;;84.55;32.75;;;;;;;;;;2130371;27;20042;-48
2021/11/05 05:32:51;;;;;;;85.35;34.53;;;;;;;;;;2131070;27;20122;-50
2021/11/05 05:33:52;;;;;;;91.88;34.35;;;;;;;;;;2132469;27;20387;-51
2021/11/05 05:34:53;;;;;;;94.50;35.67;;;;;;;;;;2129196;27;20047;-49
2021/11/05 05:35:54;;;;;;;107.03;37.55;;;;;;;;;;2131177;27;20130;-52
2021/11/05 05:36:55;;;;;;;90.90;32.93;;;;;;;;;;2132290;27;20411;-48
2021/11/05 05:37:56;;;;;;;90.22;34.47;;;;;;;;;;2129976;27;20464;-48
2021/11/05 05:38:57;;;;;;;88.15;35.53;;;;;;;;;;2124927;27;20178;-49
2021/11/05 05:39:58;;;;;;;97.03;34.47;;;;;;;;;;2123774;28;20404;-49
2021/11/05 05:41:00;;;;;;;74.83;32.30;;;;;;;;;;2126576;27;20047;-49
2021/11/05 05:42:01;;;;;;;90.60;34.33;;;;;;;;;;2132084;27;20046;-49
2021/11/05 05:43:02;;;;;;;88.93;32.80;;;;;;;;;;2132265;27;20053;-48
2021/11/05 05:44:04;;;;;;;83.72;32.88;;;;;;;;;;2128718;27;20119;-50
2021/11/05 05:45:05;;;;;;;89.00;34.22;;;;;;;;;;2132271;27;20404;-51
2021/11/05 05:46:06;;;;;;;88.97;36.05;;;;;;;;;;2132533;27;20118;-49
2021/11/05 05:47:08;;;;;;;80.70;32.90;;;;;;;;;;2128639;27;20125;-49
2021/11/05 05:48:09;;;;;;;86.78;34.08;;;;;;;;;;2132144;27;20523;-51
2021/11/05 05:49:10;;;;;;;95.93;35.03;;;;;;;;;;2131730;27;20389;-50
2021/11/05 05:50:12;;;;;;;85.28;32.78;;;;;;;;;;2129203;27;20054;-51
2021/11/05 05:51:13;;;;;;;;;;;;;;;;;;2132827;27;20074;-50
2021/11/05 05:52:14;;;;;;;84.38;33.83;;;;;;;;;;2131535;27;19919;-52
2021/11/05 05:53:15;;;;;;;92.88;35.75;;;;;;;;;;2129184;27;20050;-50
2021/11/05 05:54:16;;;;;;;84.57;34.10;;;;;;;;;;2132258;27;20126;-51
2021/11/05 05:55:17;;;;;;;87.67;33.80;;;;;;;;;;2131463;27;20741;-48
2021/11/05 05:56:19;;;;;;;72.97;29.60;;;;;;;;;;2130869;27;20131;-51
2021/11/05 05:57:20;;;;;;;88.00;34.83;;;;;;;;;;2132059;27;20049;-47
2021/11/05 05:58:21;;;;;;;70.90;30.80;;;;;;;;;;2130008;27;20133;-52